Dragonera — 9HA2475 — position and weather

sailwx.info

Track history (hours):
 
Tides and Currents Weather Stations Pressure Air Temp Water Temp Dewpoint Dewpoint Depression Visibility Wind Speed Wind Dir Waves Ship Positions

Dragonera

Last reported at 2015-Jan-28 13:33 UTC. Time now 2015-Jan-28 14:19 UTC.
Position N 50°37' W 000°17'.

Length 180 m; draft 7.6 m.

Type: Cargo ship. MMSI: 248698000.

Date/timePositionNaut miles runAvg speedWind from/ knotsBaromVisibWave heightAir tempDewpointWater temp
2015-Jan-28 13:33N 50°37' W 000°17'1111.2
2015-Jan-28 12:33N 50°27' W 000°25'6 0.6
2015-Jan-28 02:22N 50°22' W 000°22'19 8.7
2015-Jan-28 00:09N 50°30' E 000°05'  
2015-Jan-24 23:27N 39°05' W 009°51'1812.9
2015-Jan-24 22:05N 38°47' W 009°51'712.8
2015-Jan-24 21:33N 38°40' W 009°51'1313.4
2015-Jan-24 20:33N 38°27' W 009°47'1413.3
2015-Jan-24 19:31N 38°14' W 009°43'1313.2
2015-Jan-24 18:33N 38°02' W 009°39'1313.4
2015-Jan-24 17:33N 37°48' W 009°36'1413.5
2015-Jan-24 16:33N 37°35' W 009°32'6111.6
2015-Jan-24 11:19N 36°42' W 008°55'2112.1
2015-Jan-24 09:33N 36°35' W 008°30'15411.9
2015-Jan-23 20:33N 36°03' W 005°23'5 2.1
2015-Jan-23 18:04N 36°08' W 005°22'1 0.2
2015-Jan-23 14:16N 36°07' W 005°22'3 3.9
2015-Jan-23 13:32N 36°05' W 005°21'8 7.9
2015-Jan-23 12:33N 36°03' W 005°12'  
2015-Jan-20 15:33N 36°36' E 013°39'1514.8
2015-Jan-20 14:33N 36°30' E 013°56'1414.4
2015-Jan-20 13:33N 36°24' E 014°13'33314.3
2015-Jan-19 14:13N 34°14' E 020°28'  
Track history (hours):
 
Tides and Currents Weather Stations Pressure Air Temp Water Temp Dewpoint Dewpoint Depression Visibility Wind Speed Wind Dir Waves Ship Positions

Dragonera

Last reported at 2015-Jan-28 13:33 UTC. Time now 2015-Jan-28 14:19 UTC.
Position N 50°37' W 000°17'.

Length 180 m; draft 7.6 m.

Type: Cargo ship. MMSI: 248698000.

Date/timePositionNaut miles runAvg speedWind from/ knotsBaromVisibWave heightAir tempDewpointWater temp
2015-Jan-28 13:33N 50°37' W 000°17'1111.2
2015-Jan-28 12:33N 50°27' W 000°25'6 0.6
2015-Jan-28 02:22N 50°22' W 000°22'19 8.7
2015-Jan-28 00:09N 50°30' E 000°05'  
2015-Jan-24 23:27N 39°05' W 009°51'1812.9
2015-Jan-24 22:05N 38°47' W 009°51'712.8
2015-Jan-24 21:33N 38°40' W 009°51'1313.4
2015-Jan-24 20:33N 38°27' W 009°47'1413.3
2015-Jan-24 19:31N 38°14' W 009°43'1313.2
2015-Jan-24 18:33N 38°02' W 009°39'1313.4
2015-Jan-24 17:33N 37°48' W 009°36'1413.5
2015-Jan-24 16:33N 37°35' W 009°32'6111.6
2015-Jan-24 11:19N 36°42' W 008°55'2112.1
2015-Jan-24 09:33N 36°35' W 008°30'15411.9
2015-Jan-23 20:33N 36°03' W 005°23'5 2.1
2015-Jan-23 18:04N 36°08' W 005°22'1 0.2
2015-Jan-23 14:16N 36°07' W 005°22'3 3.9
2015-Jan-23 13:32N 36°05' W 005°21'8 7.9
2015-Jan-23 12:33N 36°03' W 005°12'  
2015-Jan-20 15:33N 36°36' E 013°39'1514.8
2015-Jan-20 14:33N 36°30' E 013°56'1414.4
2015-Jan-20 13:33N 36°24' E 014°13'33314.3
2015-Jan-19 14:13N 34°14' E 020°28'  

Dump ship's entire track history